sensor_id;sensor_type;location;lat;lon;timestamp;P1;durP1;ratioP1;P2;durP2;ratioP2
68192;SDS011;55012;47.562;18.414;2022-07-23T00:01:21;57.10;;;38.70;;
68192;SDS011;55012;47.562;18.414;2022-07-23T00:03:47;45.95;;;30.90;;
68192;SDS011;55012;47.562;18.414;2022-07-23T00:06:12;30.02;;;21.70;;
68192;SDS011;55012;47.562;18.414;2022-07-23T00:08:38;23.13;;;14.88;;
68192;SDS011;55012;47.562;18.414;2022-07-23T00:11:03;15.55;;;10.20;;
68192;SDS011;55012;47.562;18.414;2022-07-23T00:13:29;10.77;;;8.05;;
68192;SDS011;55012;47.562;18.414;2022-07-23T00:15:55;11.95;;;6.85;;
68192;SDS011;55012;47.562;18.414;2022-07-23T00:18:20;10.52;;;6.85;;
68192;SDS011;55012;47.562;18.414;2022-07-23T00:20:46;10.00;;;6.80;;
68192;SDS011;55012;47.562;18.414;2022-07-23T00:23:12;50.53;;;25.92;;
68192;SDS011;55012;47.562;18.414;2022-07-23T00:25:37;89.82;;;45.45;;
68192;SDS011;55012;47.562;18.414;2022-07-23T00:28:03;83.03;;;42.47;;
68192;SDS011;55012;47.562;18.414;2022-07-23T00:30:29;75.20;;;37.45;;
68192;SDS011;55012;47.562;18.414;2022-07-23T00:32:57;62.47;;;31.98;;
68192;SDS011;55012;47.562;18.414;2022-07-23T00:35:29;57.08;;;28.13;;
68192;SDS011;55012;47.562;18.414;2022-07-23T00:37:56;60.53;;;27.30;;
68192;SDS011;55012;47.562;18.414;2022-07-23T00:40:22;55.67;;;27.85;;
68192;SDS011;55012;47.562;18.414;2022-07-23T00:42:49;56.90;;;28.85;;
68192;SDS011;55012;47.562;18.414;2022-07-23T00:45:14;53.20;;;26.50;;
68192;SDS011;55012;47.562;18.414;2022-07-23T00:47:40;42.95;;;21.48;;
68192;SDS011;55012;47.562;18.414;2022-07-23T00:50:06;36.35;;;16.73;;
68192;SDS011;55012;47.562;18.414;2022-07-23T00:52:33;26.45;;;13.73;;
68192;SDS011;55012;47.562;18.414;2022-07-23T00:55:00;31.38;;;14.45;;
68192;SDS011;55012;47.562;18.414;2022-07-23T00:57:26;30.52;;;14.68;;
68192;SDS011;55012;47.562;18.414;2022-07-23T00:59:51;32.58;;;15.65;;
68192;SDS011;55012;47.562;18.414;2022-07-23T01:02:17;31.30;;;16.98;;
68192;SDS011;55012;47.562;18.414;2022-07-23T01:04:42;31.00;;;17.23;;
68192;SDS011;55012;47.562;18.414;2022-07-23T01:07:08;31.67;;;17.58;;
68192;SDS011;55012;47.562;18.414;2022-07-23T01:09:34;31.88;;;17.27;;
68192;SDS011;55012;47.562;18.414;2022-07-23T01:11:59;33.88;;;18.23;;
68192;SDS011;55012;47.562;18.414;2022-07-23T01:14:25;26.60;;;16.55;;
68192;SDS011;55012;47.562;18.414;2022-07-23T01:16:51;30.58;;;16.13;;
68192;SDS011;55012;47.562;18.414;2022-07-23T01:19:17;23.98;;;14.07;;
68192;SDS011;55012;47.562;18.414;2022-07-23T01:21:46;21.13;;;12.80;;
68192;SDS011;55012;47.562;18.414;2022-07-23T01:24:14;19.73;;;12.05;;
68192;SDS011;55012;47.562;18.414;2022-07-23T01:26:41;16.02;;;10.88;;
68192;SDS011;55012;47.562;18.414;2022-07-23T01:29:08;18.63;;;9.50;;
68192;SDS011;55012;47.562;18.414;2022-07-23T01:31:34;15.18;;;8.68;;
68192;SDS011;55012;47.562;18.414;2022-07-23T01:34:00;12.23;;;8.57;;
68192;SDS011;55012;47.562;18.414;2022-07-23T01:36:25;13.32;;;7.70;;
68192;SDS011;55012;47.562;18.414;2022-07-23T01:38:51;8.82;;;6.78;;
68192;SDS011;55012;47.562;18.414;2022-07-23T01:41:17;10.07;;;6.93;;
68192;SDS011;55012;47.562;18.414;2022-07-23T01:43:43;9.52;;;6.57;;
68192;SDS011;55012;47.562;18.414;2022-07-23T01:46:08;8.50;;;6.13;;
68192;SDS011;55012;47.562;18.414;2022-07-23T01:48:34;8.27;;;6.28;;
68192;SDS011;55012;47.562;18.414;2022-07-23T01:51:00;12.38;;;6.60;;
68192;SDS011;55012;47.562;18.414;2022-07-23T01:53:25;8.80;;;6.43;;
68192;SDS011;55012;47.562;18.414;2022-07-23T01:55:51;16.48;;;10.40;;
68192;SDS011;55012;47.562;18.414;2022-07-23T01:58:16;18.48;;;10.35;;
68192;SDS011;55012;47.562;18.414;2022-07-23T02:00:41;24.20;;;13.05;;
68192;SDS011;55012;47.562;18.414;2022-07-23T02:03:07;22.27;;;14.00;;
68192;SDS011;55012;47.562;18.414;2022-07-23T02:05:32;30.02;;;16.23;;
68192;SDS011;55012;47.562;18.414;2022-07-23T02:07:58;31.10;;;18.30;;
68192;SDS011;55012;47.562;18.414;2022-07-23T02:10:25;32.85;;;20.25;;
68192;SDS011;55012;47.562;18.414;2022-07-23T02:12:51;33.15;;;19.63;;
68192;SDS011;55012;47.562;18.414;2022-07-23T02:15:16;28.25;;;18.08;;
68192;SDS011;55012;47.562;18.414;2022-07-23T02:17:42;27.65;;;16.02;;
68192;SDS011;55012;47.562;18.414;2022-07-23T02:20:08;24.17;;;14.05;;
68192;SDS011;55012;47.562;18.414;2022-07-23T02:22:35;21.02;;;12.88;;
68192;SDS011;55012;47.562;18.414;2022-07-23T02:25:01;21.10;;;13.00;;
68192;SDS011;55012;47.562;18.414;2022-07-23T02:27:27;20.63;;;14.65;;
68192;SDS011;55012;47.562;18.414;2022-07-23T02:29:53;26.25;;;17.63;;
68192;SDS011;55012;47.562;18.414;2022-07-23T02:32:18;28.42;;;20.80;;
68192;SDS011;55012;47.562;18.414;2022-07-23T02:34:46;39.65;;;27.35;;
68192;SDS011;55012;47.562;18.414;2022-07-23T02:37:12;53.70;;;37.22;;
68192;SDS011;55012;47.562;18.414;2022-07-23T02:39:38;66.20;;;44.60;;
68192;SDS011;55012;47.562;18.414;2022-07-23T02:42:04;68.63;;;44.28;;
68192;SDS011;55012;47.562;18.414;2022-07-23T02:44:29;62.47;;;40.47;;
68192;SDS011;55012;47.562;18.414;2022-07-23T02:46:55;56.70;;;37.97;;
68192;SDS011;55012;47.562;18.414;2022-07-23T02:49:20;51.42;;;33.47;;
68192;SDS011;55012;47.562;18.414;2022-07-23T02:51:46;48.50;;;30.02;;
68192;SDS011;55012;47.562;18.414;2022-07-23T02:54:11;44.95;;;27.80;;
68192;SDS011;55012;47.562;18.414;2022-07-23T02:56:37;34.13;;;22.50;;
68192;SDS011;55012;47.562;18.414;2022-07-23T02:59:02;28.05;;;18.48;;
68192;SDS011;55012;47.562;18.414;2022-07-23T03:01:28;23.45;;;15.02;;
68192;SDS011;55012;47.562;18.414;2022-07-23T03:03:53;18.88;;;13.05;;
68192;SDS011;55012;47.562;18.414;2022-07-23T03:06:19;20.38;;;11.88;;
68192;SDS011;55012;47.562;18.414;2022-07-23T03:08:44;23.35;;;16.50;;
68192;SDS011;55012;47.562;18.414;2022-07-23T03:11:10;39.90;;;26.98;;
68192;SDS011;55012;47.562;18.414;2022-07-23T03:13:38;72.45;;;44.33;;
68192;SDS011;55012;47.562;18.414;2022-07-23T03:16:05;114.05;;;68.10;;
68192;SDS011;55012;47.562;18.414;2022-07-23T03:18:31;169.68;;;100.70;;
68192;SDS011;55012;47.562;18.414;2022-07-23T03:20:57;200.85;;;117.05;;
68192;SDS011;55012;47.562;18.414;2022-07-23T03:23:22;204.07;;;111.60;;
68192;SDS011;55012;47.562;18.414;2022-07-23T03:25:48;163.15;;;90.00;;
68192;SDS011;55012;47.562;18.414;2022-07-23T03:28:14;126.90;;;63.20;;
68192;SDS011;55012;47.562;18.414;2022-07-23T03:30:41;107.15;;;52.35;;
68192;SDS011;55012;47.562;18.414;2022-07-23T03:33:07;98.00;;;46.70;;
68192;SDS011;55012;47.562;18.414;2022-07-23T03:35:32;90.10;;;42.80;;
68192;SDS011;55012;47.562;18.414;2022-07-23T03:37:58;78.45;;;38.80;;
68192;SDS011;55012;47.562;18.414;2022-07-23T03:40:23;72.00;;;33.10;;
68192;SDS011;55012;47.562;18.414;2022-07-23T03:42:49;68.53;;;28.17;;
68192;SDS011;55012;47.562;18.414;2022-07-23T03:45:14;56.60;;;22.77;;
68192;SDS011;55012;47.562;18.414;2022-07-23T03:47:40;39.03;;;17.08;;
68192;SDS011;55012;47.562;18.414;2022-07-23T03:50:06;26.60;;;12.95;;
68192;SDS011;55012;47.562;18.414;2022-07-23T03:52:31;29.38;;;10.90;;
68192;SDS011;55012;47.562;18.414;2022-07-23T03:54:57;21.75;;;10.23;;
68192;SDS011;55012;47.562;18.414;2022-07-23T03:57:22;24.63;;;10.00;;
68192;SDS011;55012;47.562;18.414;2022-07-23T03:59:48;19.23;;;8.65;;
68192;SDS011;55012;47.562;18.414;2022-07-23T04:02:13;22.10;;;8.95;;
68192;SDS011;55012;47.562;18.414;2022-07-23T04:04:39;15.55;;;8.48;;
68192;SDS011;55012;47.562;18.414;2022-07-23T04:07:05;19.90;;;8.57;;
68192;SDS011;55012;47.562;18.414;2022-07-23T04:09:31;19.63;;;10.38;;
68192;SDS011;55012;47.562;18.414;2022-07-23T04:11:57;33.80;;;20.77;;
68192;SDS011;55012;47.562;18.414;2022-07-23T04:14:22;57.28;;;32.20;;
68192;SDS011;55012;47.562;18.414;2022-07-23T04:16:47;54.13;;;32.67;;
68192;SDS011;55012;47.562;18.414;2022-07-23T04:19:13;50.53;;;26.77;;
68192;SDS011;55012;47.562;18.414;2022-07-23T04:21:38;44.75;;;23.80;;
68192;SDS011;55012;47.562;18.414;2022-07-23T04:24:04;33.90;;;19.17;;
68192;SDS011;55012;47.562;18.414;2022-07-23T04:26:29;31.13;;;15.52;;
68192;SDS011;55012;47.562;18.414;2022-07-23T04:28:55;26.05;;;14.32;;
68192;SDS011;55012;47.562;18.414;2022-07-23T04:31:20;17.88;;;11.85;;
68192;SDS011;55012;47.562;18.414;2022-07-23T04:33:46;17.38;;;10.30;;
68192;SDS011;55012;47.562;18.414;2022-07-23T04:36:12;17.75;;;9.85;;
68192;SDS011;55012;47.562;18.414;2022-07-23T04:38:37;14.15;;;8.88;;
68192;SDS011;55012;47.562;18.414;2022-07-23T04:41:03;11.25;;;8.40;;
68192;SDS011;55012;47.562;18.414;2022-07-23T04:43:29;10.20;;;7.55;;
68192;SDS011;55012;47.562;18.414;2022-07-23T04:45:54;15.70;;;7.97;;
68192;SDS011;55012;47.562;18.414;2022-07-23T04:48:20;11.27;;;7.30;;
68192;SDS011;55012;47.562;18.414;2022-07-23T04:50:45;11.88;;;6.85;;
68192;SDS011;55012;47.562;18.414;2022-07-23T04:53:10;14.63;;;7.50;;
68192;SDS011;55012;47.562;18.414;2022-07-23T04:55:36;11.50;;;6.82;;
68192;SDS011;55012;47.562;18.414;2022-07-23T04:58:01;14.35;;;7.10;;
68192;SDS011;55012;47.562;18.414;2022-07-23T05:00:27;12.18;;;7.57;;
68192;SDS011;55012;47.562;18.414;2022-07-23T05:02:52;22.10;;;13.68;;
68192;SDS011;55012;47.562;18.414;2022-07-23T05:05:18;77.50;;;42.80;;
68192;SDS011;55012;47.562;18.414;2022-07-23T05:07:43;103.57;;;56.03;;
68192;SDS011;55012;47.562;18.414;2022-07-23T05:10:09;103.78;;;56.97;;
68192;SDS011;55012;47.562;18.414;2022-07-23T05:12:34;101.45;;;53.38;;
68192;SDS011;55012;47.562;18.414;2022-07-23T05:15:00;97.82;;;50.45;;
68192;SDS011;55012;47.562;18.414;2022-07-23T05:17:25;75.68;;;42.72;;
68192;SDS011;55012;47.562;18.414;2022-07-23T05:19:51;66.88;;;37.15;;
68192;SDS011;55012;47.562;18.414;2022-07-23T05:22:16;57.30;;;32.35;;
68192;SDS011;55012;47.562;18.414;2022-07-23T05:24:42;46.00;;;26.02;;
68192;SDS011;55012;47.562;18.414;2022-07-23T05:27:08;40.65;;;22.27;;
68192;SDS011;55012;47.562;18.414;2022-07-23T05:29:33;32.47;;;17.98;;
68192;SDS011;55012;47.562;18.414;2022-07-23T05:31:59;31.50;;;15.27;;
68192;SDS011;55012;47.562;18.414;2022-07-23T05:34:24;21.85;;;13.55;;
68192;SDS011;55012;47.562;18.414;2022-07-23T05:36:50;27.30;;;14.90;;
68192;SDS011;55012;47.562;18.414;2022-07-23T05:39:15;25.30;;;14.75;;
68192;SDS011;55012;47.562;18.414;2022-07-23T05:41:41;23.73;;;14.32;;
68192;SDS011;55012;47.562;18.414;2022-07-23T05:44:06;25.35;;;13.70;;
68192;SDS011;55012;47.562;18.414;2022-07-23T05:46:32;23.95;;;15.57;;
68192;SDS011;55012;47.562;18.414;2022-07-23T05:48:57;24.33;;;16.75;;
68192;SDS011;55012;47.562;18.414;2022-07-23T05:51:23;25.90;;;17.80;;
68192;SDS011;55012;47.562;18.414;2022-07-23T05:53:49;31.35;;;19.20;;
68192;SDS011;55012;47.562;18.414;2022-07-23T05:56:16;33.75;;;21.73;;
68192;SDS011;55012;47.562;18.414;2022-07-23T05:58:42;39.97;;;25.38;;
68192;SDS011;55012;47.562;18.414;2022-07-23T06:01:07;50.20;;;29.42;;
68192;SDS011;55012;47.562;18.414;2022-07-23T06:03:33;63.20;;;37.28;;
68192;SDS011;55012;47.562;18.414;2022-07-23T06:05:59;154.07;;;94.88;;
68192;SDS011;55012;47.562;18.414;2022-07-23T06:08:24;150.55;;;90.45;;
68192;SDS011;55012;47.562;18.414;2022-07-23T06:10:50;141.98;;;84.10;;
68192;SDS011;55012;47.562;18.414;2022-07-23T06:13:19;121.13;;;73.45;;
68192;SDS011;55012;47.562;18.414;2022-07-23T06:15:44;113.35;;;66.40;;
68192;SDS011;55012;47.562;18.414;2022-07-23T06:18:10;98.70;;;55.25;;
68192;SDS011;55012;47.562;18.414;2022-07-23T06:20:35;94.15;;;49.58;;
68192;SDS011;55012;47.562;18.414;2022-07-23T06:23:01;81.90;;;40.33;;
68192;SDS011;55012;47.562;18.414;2022-07-23T06:25:27;72.32;;;36.47;;
68192;SDS011;55012;47.562;18.414;2022-07-23T06:27:52;69.95;;;31.23;;
68192;SDS011;55012;47.562;18.414;2022-07-23T06:30:18;55.45;;;27.08;;
68192;SDS011;55012;47.562;18.414;2022-07-23T06:32:44;45.45;;;22.42;;
68192;SDS011;55012;47.562;18.414;2022-07-23T06:35:10;35.17;;;16.88;;
68192;SDS011;55012;47.562;18.414;2022-07-23T06:37:36;36.35;;;17.27;;
68192;SDS011;55012;47.562;18.414;2022-07-23T06:40:02;26.30;;;13.13;;
68192;SDS011;55012;47.562;18.414;2022-07-23T06:42:28;17.73;;;11.40;;
68192;SDS011;55012;47.562;18.414;2022-07-23T06:44:53;14.23;;;10.52;;
68192;SDS011;55012;47.562;18.414;2022-07-23T06:47:19;16.13;;;12.25;;
68192;SDS011;55012;47.562;18.414;2022-07-23T06:49:44;18.17;;;13.43;;
68192;SDS011;55012;47.562;18.414;2022-07-23T06:52:10;21.50;;;13.32;;
68192;SDS011;55012;47.562;18.414;2022-07-23T06:54:35;18.95;;;13.77;;
68192;SDS011;55012;47.562;18.414;2022-07-23T06:57:00;17.88;;;12.68;;
68192;SDS011;55012;47.562;18.414;2022-07-23T06:59:26;20.17;;;12.82;;
68192;SDS011;55012;47.562;18.414;2022-07-23T07:01:52;19.27;;;12.63;;
68192;SDS011;55012;47.562;18.414;2022-07-23T07:04:17;22.30;;;13.18;;
68192;SDS011;55012;47.562;18.414;2022-07-23T07:06:44;21.85;;;11.60;;
68192;SDS011;55012;47.562;18.414;2022-07-23T07:09:09;17.83;;;11.55;;
68192;SDS011;55012;47.562;18.414;2022-07-23T07:11:35;20.45;;;11.38;;
68192;SDS011;55012;47.562;18.414;2022-07-23T07:14:01;20.55;;;11.38;;
68192;SDS011;55012;47.562;18.414;2022-07-23T07:16:26;16.20;;;9.82;;
68192;SDS011;55012;47.562;18.414;2022-07-23T07:18:52;13.60;;;8.80;;
68192;SDS011;55012;47.562;18.414;2022-07-23T07:21:17;11.15;;;8.48;;
68192;SDS011;55012;47.562;18.414;2022-07-23T07:23:43;13.02;;;7.95;;
68192;SDS011;55012;47.562;18.414;2022-07-23T07:26:08;13.52;;;7.80;;
68192;SDS011;55012;47.562;18.414;2022-07-23T07:28:34;10.02;;;7.03;;
68192;SDS011;55012;47.562;18.414;2022-07-23T07:30:59;8.95;;;6.45;;
68192;SDS011;55012;47.562;18.414;2022-07-23T07:33:25;10.75;;;6.57;;
68192;SDS011;55012;47.562;18.414;2022-07-23T07:35:50;9.25;;;6.90;;
68192;SDS011;55012;47.562;18.414;2022-07-23T07:38:16;9.00;;;6.90;;
68192;SDS011;55012;47.562;18.414;2022-07-23T07:40:41;10.63;;;6.90;;
68192;SDS011;55012;47.562;18.414;2022-07-23T07:43:07;9.60;;;6.15;;
68192;SDS011;55012;47.562;18.414;2022-07-23T07:45:32;9.95;;;7.05;;
68192;SDS011;55012;47.562;18.414;2022-07-23T07:47:58;7.28;;;6.30;;
68192;SDS011;55012;47.562;18.414;2022-07-23T07:50:24;10.50;;;5.90;;
68192;SDS011;55012;47.562;18.414;2022-07-23T07:52:49;9.43;;;5.70;;
68192;SDS011;55012;47.562;18.414;2022-07-23T07:55:15;9.80;;;5.40;;
68192;SDS011;55012;47.562;18.414;2022-07-23T07:57:41;15.10;;;5.60;;
68192;SDS011;55012;47.562;18.414;2022-07-23T08:00:07;10.40;;;5.22;;
68192;SDS011;55012;47.562;18.414;2022-07-23T08:05:05;7.53;;;5.15;;
68192;SDS011;55012;47.562;18.414;2022-07-23T08:07:31;8.48;;;5.22;;
68192;SDS011;55012;47.562;18.414;2022-07-23T08:09:57;7.80;;;5.80;;
68192;SDS011;55012;47.562;18.414;2022-07-23T08:12:22;8.25;;;5.22;;
68192;SDS011;55012;47.562;18.414;2022-07-23T08:14:47;7.63;;;4.63;;
68192;SDS011;55012;47.562;18.414;2022-07-23T08:17:13;6.00;;;5.13;;
68192;SDS011;55012;47.562;18.414;2022-07-23T08:19:38;6.82;;;5.20;;
68192;SDS011;55012;47.562;18.414;2022-07-23T08:22:04;6.10;;;5.00;;
68192;SDS011;55012;47.562;18.414;2022-07-23T08:24:29;12.02;;;5.60;;
68192;SDS011;55012;47.562;18.414;2022-07-23T08:26:55;10.93;;;5.50;;
68192;SDS011;55012;47.562;18.414;2022-07-23T08:29:20;8.15;;;5.38;;
68192;SDS011;55012;47.562;18.414;2022-07-23T08:31:46;6.88;;;5.00;;
68192;SDS011;55012;47.562;18.414;2022-07-23T08:34:11;8.25;;;4.90;;
68192;SDS011;55012;47.562;18.414;2022-07-23T08:36:37;8.43;;;5.03;;
68192;SDS011;55012;47.562;18.414;2022-07-23T08:39:02;9.13;;;5.20;;
68192;SDS011;55012;47.562;18.414;2022-07-23T08:41:28;8.02;;;5.20;;
68192;SDS011;55012;47.562;18.414;2022-07-23T08:43:54;8.10;;;5.10;;
68192;SDS011;55012;47.562;18.414;2022-07-23T08:46:21;6.70;;;5.10;;
68192;SDS011;55012;47.562;18.414;2022-07-23T08:48:49;7.50;;;5.00;;
68192;SDS011;55012;47.562;18.414;2022-07-23T08:51:15;8.23;;;4.90;;
68192;SDS011;55012;47.562;18.414;2022-07-23T08:53:41;9.70;;;4.72;;
68192;SDS011;55012;47.562;18.414;2022-07-23T08:56:07;7.65;;;5.00;;
68192;SDS011;55012;47.562;18.414;2022-07-23T08:58:33;7.13;;;4.82;;
68192;SDS011;55012;47.562;18.414;2022-07-23T09:01:00;15.25;;;5.50;;
68192;SDS011;55012;47.562;18.414;2022-07-23T09:03:30;8.80;;;5.00;;
68192;SDS011;55012;47.562;18.414;2022-07-23T09:05:58;8.38;;;4.95;;
68192;SDS011;55012;47.562;18.414;2022-07-23T09:08:25;7.28;;;4.78;;
68192;SDS011;55012;47.562;18.414;2022-07-23T09:11:00;8.95;;;5.00;;
68192;SDS011;55012;47.562;18.414;2022-07-23T09:13:31;7.05;;;4.65;;
68192;SDS011;55012;47.562;18.414;2022-07-23T09:16:10;8.45;;;5.13;;
68192;SDS011;55012;47.562;18.414;2022-07-23T09:26:41;7.15;;;5.55;;
68192;SDS011;55012;47.562;18.414;2022-07-23T09:29:09;7.25;;;4.80;;
68192;SDS011;55012;47.562;18.414;2022-07-23T09:34:34;9.77;;;5.10;;
68192;SDS011;55012;47.562;18.414;2022-07-23T09:37:13;9.60;;;5.70;;
68192;SDS011;55012;47.562;18.414;2022-07-23T09:39:40;8.75;;;5.43;;
68192;SDS011;55012;47.562;18.414;2022-07-23T09:42:20;8.73;;;5.75;;
68192;SDS011;55012;47.562;18.414;2022-07-23T09:44:53;7.13;;;5.78;;
68192;SDS011;55012;47.562;18.414;2022-07-23T09:47:20;10.45;;;5.70;;
68192;SDS011;55012;47.562;18.414;2022-07-23T09:55:12;7.75;;;6.05;;
68192;SDS011;55012;47.562;18.414;2022-07-23T09:57:37;9.25;;;5.82;;
68192;SDS011;55012;47.562;18.414;2022-07-23T10:00:06;9.23;;;5.90;;
68192;SDS011;55012;47.562;18.414;2022-07-23T10:02:36;7.82;;;5.63;;
68192;SDS011;55012;47.562;18.414;2022-07-23T10:05:03;7.05;;;5.28;;
68192;SDS011;55012;47.562;18.414;2022-07-23T10:07:34;8.13;;;5.85;;
68192;SDS011;55012;47.562;18.414;2022-07-23T10:10:04;7.70;;;4.95;;
68192;SDS011;55012;47.562;18.414;2022-07-23T10:12:30;8.38;;;5.43;;
68192;SDS011;55012;47.562;18.414;2022-07-23T10:15:02;7.13;;;5.88;;
68192;SDS011;55012;47.562;18.414;2022-07-23T10:17:29;8.02;;;5.30;;
68192;SDS011;55012;47.562;18.414;2022-07-23T10:19:55;7.80;;;5.50;;
68192;SDS011;55012;47.562;18.414;2022-07-23T10:22:25;8.57;;;5.38;;
68192;SDS011;55012;47.562;18.414;2022-07-23T10:32:56;12.52;;;5.40;;
68192;SDS011;55012;47.562;18.414;2022-07-23T10:35:36;8.32;;;5.40;;
68192;SDS011;55012;47.562;18.414;2022-07-23T10:43:26;8.90;;;5.50;;
68192;SDS011;55012;47.562;18.414;2022-07-23T10:45:53;9.60;;;5.70;;
68192;SDS011;55012;47.562;18.414;2022-07-23T10:48:39;7.85;;;5.43;;
68192;SDS011;55012;47.562;18.414;2022-07-23T10:51:15;10.70;;;5.35;;
68192;SDS011;55012;47.562;18.414;2022-07-23T10:53:54;8.55;;;5.72;;
68192;SDS011;55012;47.562;18.414;2022-07-23T10:59:15;8.45;;;5.50;;
68192;SDS011;55012;47.562;18.414;2022-07-23T11:01:40;9.32;;;6.07;;
68192;SDS011;55012;47.562;18.414;2022-07-23T11:04:06;9.18;;;5.55;;
68192;SDS011;55012;47.562;18.414;2022-07-23T11:17:27;7.25;;;5.90;;
68192;SDS011;55012;47.562;18.414;2022-07-23T11:25:30;8.35;;;6.30;;
68192;SDS011;55012;47.562;18.414;2022-07-23T11:28:17;12.23;;;6.43;;
68192;SDS011;55012;47.562;18.414;2022-07-23T11:30:43;9.50;;;6.22;;
68192;SDS011;55012;47.562;18.414;2022-07-23T11:35:39;8.35;;;6.18;;
68192;SDS011;55012;47.562;18.414;2022-07-23T11:38:07;10.23;;;6.35;;
68192;SDS011;55012;47.562;18.414;2022-07-23T11:40:39;7.00;;;6.30;;
68192;SDS011;55012;47.562;18.414;2022-07-23T11:43:09;9.82;;;6.50;;
68192;SDS011;55012;47.562;18.414;2022-07-23T11:48:03;10.77;;;7.30;;
68192;SDS011;55012;47.562;18.414;2022-07-23T11:50:30;8.77;;;7.25;;
68192;SDS011;55012;47.562;18.414;2022-07-23T11:52:56;10.00;;;7.20;;
68192;SDS011;55012;47.562;18.414;2022-07-23T11:55:22;10.27;;;6.90;;
68192;SDS011;55012;47.562;18.414;2022-07-23T11:57:49;9.50;;;6.85;;
68192;SDS011;55012;47.562;18.414;2022-07-23T12:00:20;10.88;;;7.10;;
68192;SDS011;55012;47.562;18.414;2022-07-23T12:07:48;11.82;;;7.65;;
68192;SDS011;55012;47.562;18.414;2022-07-23T12:10:17;12.93;;;7.68;;
68192;SDS011;55012;47.562;18.414;2022-07-23T12:12:53;8.98;;;7.20;;
68192;SDS011;55012;47.562;18.414;2022-07-23T12:15:42;11.20;;;7.75;;
68192;SDS011;55012;47.562;18.414;2022-07-23T12:18:08;11.13;;;7.30;;
68192;SDS011;55012;47.562;18.414;2022-07-23T12:20:41;10.27;;;7.60;;
68192;SDS011;55012;47.562;18.414;2022-07-23T12:23:15;9.40;;;6.95;;
68192;SDS011;55012;47.562;18.414;2022-07-23T12:25:44;10.23;;;6.80;;
68192;SDS011;55012;47.562;18.414;2022-07-23T12:28:11;10.18;;;7.40;;
68192;SDS011;55012;47.562;18.414;2022-07-23T12:31:01;8.70;;;7.28;;
68192;SDS011;55012;47.562;18.414;2022-07-23T12:33:30;9.48;;;6.90;;
68192;SDS011;55012;47.562;18.414;2022-07-23T12:35:57;9.30;;;7.00;;
68192;SDS011;55012;47.562;18.414;2022-07-23T12:38:25;8.75;;;6.82;;
68192;SDS011;55012;47.562;18.414;2022-07-23T12:40:57;8.20;;;7.40;;
68192;SDS011;55012;47.562;18.414;2022-07-23T12:43:25;10.20;;;7.40;;
68192;SDS011;55012;47.562;18.414;2022-07-23T12:45:52;8.30;;;7.20;;
68192;SDS011;55012;47.562;18.414;2022-07-23T12:48:24;9.98;;;7.28;;
68192;SDS011;55012;47.562;18.414;2022-07-23T12:50:54;9.87;;;7.33;;
68192;SDS011;55012;47.562;18.414;2022-07-23T12:55:57;10.10;;;7.50;;
68192;SDS011;55012;47.562;18.414;2022-07-23T13:01:09;8.32;;;7.28;;
68192;SDS011;55012;47.562;18.414;2022-07-23T13:03:39;8.60;;;7.05;;
68192;SDS011;55012;47.562;18.414;2022-07-23T13:06:09;8.15;;;7.40;;
68192;SDS011;55012;47.562;18.414;2022-07-23T13:08:37;9.45;;;7.65;;
68192;SDS011;55012;47.562;18.414;2022-07-23T13:11:05;8.95;;;7.30;;
68192;SDS011;55012;47.562;18.414;2022-07-23T13:13:31;10.25;;;7.03;;
68192;SDS011;55012;47.562;18.414;2022-07-23T13:15:58;14.10;;;7.68;;
68192;SDS011;55012;47.562;18.414;2022-07-23T13:18:25;10.00;;;7.68;;
68192;SDS011;55012;47.562;18.414;2022-07-23T13:20:52;9.50;;;7.10;;
68192;SDS011;55012;47.562;18.414;2022-07-23T13:23:18;8.95;;;7.50;;
68192;SDS011;55012;47.562;18.414;2022-07-23T13:25:44;8.10;;;7.13;;
68192;SDS011;55012;47.562;18.414;2022-07-23T13:28:10;7.93;;;7.15;;
68192;SDS011;55012;47.562;18.414;2022-07-23T13:30:36;12.23;;;7.47;;
68192;SDS011;55012;47.562;18.414;2022-07-23T13:33:02;10.13;;;7.15;;
68192;SDS011;55012;47.562;18.414;2022-07-23T13:35:28;10.18;;;7.85;;
68192;SDS011;55012;47.562;18.414;2022-07-23T13:37:54;10.63;;;7.43;;
68192;SDS011;55012;47.562;18.414;2022-07-23T13:40:20;8.43;;;7.63;;
68192;SDS011;55012;47.562;18.414;2022-07-23T13:42:46;8.55;;;7.57;;
68192;SDS011;55012;47.562;18.414;2022-07-23T13:45:11;9.70;;;8.80;;
68192;SDS011;55012;47.562;18.414;2022-07-23T13:47:37;10.45;;;8.95;;
68192;SDS011;55012;47.562;18.414;2022-07-23T13:50:03;10.27;;;9.20;;
68192;SDS011;55012;47.562;18.414;2022-07-23T13:52:29;12.30;;;9.23;;
68192;SDS011;55012;47.562;18.414;2022-07-23T13:54:55;10.70;;;8.88;;
68192;SDS011;55012;47.562;18.414;2022-07-23T13:57:20;10.75;;;8.98;;
68192;SDS011;55012;47.562;18.414;2022-07-23T13:59:46;9.82;;;8.82;;
68192;SDS011;55012;47.562;18.414;2022-07-23T14:02:11;13.65;;;9.38;;
68192;SDS011;55012;47.562;18.414;2022-07-23T14:04:41;10.38;;;9.23;;
68192;SDS011;55012;47.562;18.414;2022-07-23T14:07:07;11.32;;;9.70;;
68192;SDS011;55012;47.562;18.414;2022-07-23T14:09:32;11.95;;;9.80;;
68192;SDS011;55012;47.562;18.414;2022-07-23T14:11:59;11.23;;;10.13;;
68192;SDS011;55012;47.562;18.414;2022-07-23T14:14:24;12.13;;;10.52;;
68192;SDS011;55012;47.562;18.414;2022-07-23T14:16:50;11.63;;;10.30;;
68192;SDS011;55012;47.562;18.414;2022-07-23T14:19:15;12.38;;;10.68;;
68192;SDS011;55012;47.562;18.414;2022-07-23T14:21:41;11.65;;;10.55;;
68192;SDS011;55012;47.562;18.414;2022-07-23T14:24:06;14.25;;;11.13;;
68192;SDS011;55012;47.562;18.414;2022-07-23T14:26:32;12.32;;;11.05;;
68192;SDS011;55012;47.562;18.414;2022-07-23T14:28:57;13.38;;;11.38;;
68192;SDS011;55012;47.562;18.414;2022-07-23T14:31:23;18.60;;;10.73;;
68192;SDS011;55012;47.562;18.414;2022-07-23T14:33:49;13.20;;;11.68;;
68192;SDS011;55012;47.562;18.414;2022-07-23T14:36:14;13.70;;;11.93;;
68192;SDS011;55012;47.562;18.414;2022-07-23T14:38:40;13.43;;;11.85;;
68192;SDS011;55012;47.562;18.414;2022-07-23T14:41:06;13.95;;;12.55;;
68192;SDS011;55012;47.562;18.414;2022-07-23T14:43:33;14.48;;;11.90;;
68192;SDS011;55012;47.562;18.414;2022-07-23T14:45:59;34.83;;;13.20;;
68192;SDS011;55012;47.562;18.414;2022-07-23T14:48:25;21.05;;;12.50;;
68192;SDS011;55012;47.562;18.414;2022-07-23T14:50:50;17.40;;;11.60;;
68192;SDS011;55012;47.562;18.414;2022-07-23T14:53:16;17.33;;;12.45;;
68192;SDS011;55012;47.562;18.414;2022-07-23T14:55:41;23.75;;;13.38;;
68192;SDS011;55012;47.562;18.414;2022-07-23T14:58:07;22.40;;;13.95;;
68192;SDS011;55012;47.562;18.414;2022-07-23T15:00:33;18.25;;;13.55;;
68192;SDS011;55012;47.562;18.414;2022-07-23T15:02:58;20.33;;;12.77;;
68192;SDS011;55012;47.562;18.414;2022-07-23T15:05:24;20.67;;;14.20;;
68192;SDS011;55012;47.562;18.414;2022-07-23T15:07:49;20.33;;;14.10;;
68192;SDS011;55012;47.562;18.414;2022-07-23T15:10:15;18.00;;;13.25;;
68192;SDS011;55012;47.562;18.414;2022-07-23T15:12:41;16.38;;;12.82;;
68192;SDS011;55012;47.562;18.414;2022-07-23T15:15:07;16.10;;;13.40;;
68192;SDS011;55012;47.562;18.414;2022-07-23T15:17:33;13.75;;;11.90;;
68192;SDS011;55012;47.562;18.414;2022-07-23T15:19:58;13.27;;;11.68;;
68192;SDS011;55012;47.562;18.414;2022-07-23T15:22:24;16.98;;;12.93;;